sensor_id;sensor_type;location;lat;lon;timestamp;temperature;humidity
41324;DHT22;27073;51.128;4.220;2022-11-15T00:01:52;11.10;99.90
41324;DHT22;27073;51.128;4.220;2022-11-15T00:04:37;11.10;99.90
41324;DHT22;27073;51.128;4.220;2022-11-15T00:07:21;11.30;99.90
41324;DHT22;27073;51.128;4.220;2022-11-15T00:10:06;11.30;99.90
41324;DHT22;27073;51.128;4.220;2022-11-15T00:12:50;11.20;99.90
41324;DHT22;27073;51.128;4.220;2022-11-15T00:15:39;11.20;99.90
41324;DHT22;27073;51.128;4.220;2022-11-15T00:18:24;11.30;99.90
41324;DHT22;27073;51.128;4.220;2022-11-15T00:21:13;11.30;99.90
41324;DHT22;27073;51.128;4.220;2022-11-15T00:23:58;11.30;99.90
41324;DHT22;27073;51.128;4.220;2022-11-15T00:26:42;11.30;99.90
41324;DHT22;27073;51.128;4.220;2022-11-15T00:29:26;11.40;99.90
41324;DHT22;27073;51.128;4.220;2022-11-15T00:32:10;11.40;99.90
41324;DHT22;27073;51.128;4.220;2022-11-15T00:34:55;11.50;99.90
41324;DHT22;27073;51.128;4.220;2022-11-15T00:37:39;11.40;99.90
41324;DHT22;27073;51.128;4.220;2022-11-15T00:40:23;11.50;99.90
41324;DHT22;27073;51.128;4.220;2022-11-15T00:43:07;11.40;99.90
41324;DHT22;27073;51.128;4.220;2022-11-15T00:45:51;11.40;99.90
41324;DHT22;27073;51.128;4.220;2022-11-15T00:48:36;11.40;99.90
41324;DHT22;27073;51.128;4.220;2022-11-15T00:51:20;11.50;99.90
41324;DHT22;27073;51.128;4.220;2022-11-15T00:54:04;11.60;99.90
41324;DHT22;27073;51.128;4.220;2022-11-15T00:56:49;11.70;99.90
41324;DHT22;27073;51.128;4.220;2022-11-15T00:59:33;11.60;99.90
41324;DHT22;27073;51.128;4.220;2022-11-15T01:02:17;11.60;99.90
41324;DHT22;27073;51.128;4.220;2022-11-15T01:05:01;11.80;99.90
41324;DHT22;27073;51.128;4.220;2022-11-15T01:07:45;11.70;99.90
41324;DHT22;27073;51.128;4.220;2022-11-15T01:10:29;11.60;99.90
41324;DHT22;27073;51.128;4.220;2022-11-15T01:13:13;11.60;99.90
41324;DHT22;27073;51.128;4.220;2022-11-15T01:15:57;11.70;99.90
41324;DHT22;27073;51.128;4.220;2022-11-15T01:18:41;11.80;99.90
41324;DHT22;27073;51.128;4.220;2022-11-15T01:21:25;11.70;99.90
41324;DHT22;27073;51.128;4.220;2022-11-15T01:24:12;11.90;99.90
41324;DHT22;27073;51.128;4.220;2022-11-15T01:26:56;12.00;99.90
41324;DHT22;27073;51.128;4.220;2022-11-15T01:29:40;11.90;99.90
41324;DHT22;27073;51.128;4.220;2022-11-15T01:32:25;11.90;99.90
41324;DHT22;27073;51.128;4.220;2022-11-15T01:35:09;11.80;99.90
41324;DHT22;27073;51.128;4.220;2022-11-15T01:37:53;11.70;99.90
41324;DHT22;27073;51.128;4.220;2022-11-15T01:40:37;11.80;99.90
41324;DHT22;27073;51.128;4.220;2022-11-15T01:43:28;11.90;99.90
41324;DHT22;27073;51.128;4.220;2022-11-15T01:46:31;11.80;99.90
41324;DHT22;27073;51.128;4.220;2022-11-15T01:49:20;11.80;99.90
41324;DHT22;27073;51.128;4.220;2022-11-15T01:52:10;11.80;99.90
41324;DHT22;27073;51.128;4.220;2022-11-15T01:57:45;11.90;99.90
41324;DHT22;27073;51.128;4.220;2022-11-15T02:00:31;11.80;99.90
41324;DHT22;27073;51.128;4.220;2022-11-15T02:03:16;11.80;99.90
41324;DHT22;27073;51.128;4.220;2022-11-15T02:06:01;11.80;99.90
41324;DHT22;27073;51.128;4.220;2022-11-15T02:08:46;11.90;99.90
41324;DHT22;27073;51.128;4.220;2022-11-15T02:11:30;11.80;99.90
41324;DHT22;27073;51.128;4.220;2022-11-15T02:14:16;11.90;99.90
41324;DHT22;27073;51.128;4.220;2022-11-15T02:17:26;11.90;99.90
41324;DHT22;27073;51.128;4.220;2022-11-15T02:23:38;11.90;99.90
41324;DHT22;27073;51.128;4.220;2022-11-15T02:32:44;11.80;99.90
41324;DHT22;27073;51.128;4.220;2022-11-15T02:38:57;11.80;99.90
41324;DHT22;27073;51.128;4.220;2022-11-15T02:41:53;11.80;99.90
41324;DHT22;27073;51.128;4.220;2022-11-15T02:44:43;11.80;99.90
41324;DHT22;27073;51.128;4.220;2022-11-15T02:47:29;11.80;99.90
41324;DHT22;27073;51.128;4.220;2022-11-15T02:50:20;12.00;99.90
41324;DHT22;27073;51.128;4.220;2022-11-15T02:53:05;11.90;99.90
41324;DHT22;27073;51.128;4.220;2022-11-15T02:55:51;12.00;99.90
41324;DHT22;27073;51.128;4.220;2022-11-15T02:59:03;12.00;99.90
41324;DHT22;27073;51.128;4.220;2022-11-15T03:08:10;11.90;99.90
41324;DHT22;27073;51.128;4.220;2022-11-15T03:14:24;11.80;99.90
41324;DHT22;27073;51.128;4.220;2022-11-15T03:17:26;11.80;99.90
41324;DHT22;27073;51.128;4.220;2022-11-15T03:20:13;11.80;99.90
41324;DHT22;27073;51.128;4.220;2022-11-15T03:23:05;11.90;99.90
41324;DHT22;27073;51.128;4.220;2022-11-15T03:25:50;11.80;99.90
41324;DHT22;27073;51.128;4.220;2022-11-15T03:31:30;11.90;99.90
41324;DHT22;27073;51.128;4.220;2022-11-15T03:34:44;11.80;99.90
41324;DHT22;27073;51.128;4.220;2022-11-15T03:40:38;11.60;99.90
41324;DHT22;27073;51.128;4.220;2022-11-15T03:43:34;11.60;99.90
41324;DHT22;27073;51.128;4.220;2022-11-15T03:46:25;11.60;99.90
41324;DHT22;27073;51.128;4.220;2022-11-15T03:49:17;11.70;99.90
41324;DHT22;27073;51.128;4.220;2022-11-15T03:52:04;11.70;99.90
41324;DHT22;27073;51.128;4.220;2022-11-15T03:54:54;11.60;99.90
41324;DHT22;27073;51.128;4.220;2022-11-15T03:57:39;11.70;99.90
41324;DHT22;27073;51.128;4.220;2022-11-15T04:00:23;11.70;99.90
41324;DHT22;27073;51.128;4.220;2022-11-15T04:03:08;11.60;99.90
41324;DHT22;27073;51.128;4.220;2022-11-15T04:05:52;11.60;99.90
41324;DHT22;27073;51.128;4.220;2022-11-15T04:08:36;11.60;99.90
41324;DHT22;27073;51.128;4.220;2022-11-15T04:11:20;11.60;99.90
41324;DHT22;27073;51.128;4.220;2022-11-15T04:14:04;11.70;99.90
41324;DHT22;27073;51.128;4.220;2022-11-15T04:16:48;11.70;99.90
41324;DHT22;27073;51.128;4.220;2022-11-15T04:19:32;11.60;99.90
41324;DHT22;27073;51.128;4.220;2022-11-15T04:22:35;11.60;99.90
41324;DHT22;27073;51.128;4.220;2022-11-15T04:25:38;11.60;99.90
41324;DHT22;27073;51.128;4.220;2022-11-15T04:28:23;11.70;99.90
41324;DHT22;27073;51.128;4.220;2022-11-15T04:31:07;11.60;99.90
41324;DHT22;27073;51.128;4.220;2022-11-15T04:33:52;11.50;99.90
41324;DHT22;27073;51.128;4.220;2022-11-15T04:36:36;11.50;99.90
41324;DHT22;27073;51.128;4.220;2022-11-15T04:39:40;11.40;99.90
41324;DHT22;27073;51.128;4.220;2022-11-15T04:42:24;11.40;99.90
41324;DHT22;27073;51.128;4.220;2022-11-15T04:45:09;11.50;99.90
41324;DHT22;27073;51.128;4.220;2022-11-15T04:47:54;11.50;99.90
41324;DHT22;27073;51.128;4.220;2022-11-15T04:50:38;11.40;99.90
41324;DHT22;27073;51.128;4.220;2022-11-15T04:53:22;11.40;99.90
41324;DHT22;27073;51.128;4.220;2022-11-15T04:56:06;11.40;99.90
41324;DHT22;27073;51.128;4.220;2022-11-15T04:58:50;11.40;99.90
41324;DHT22;27073;51.128;4.220;2022-11-15T05:01:34;11.50;99.90
41324;DHT22;27073;51.128;4.220;2022-11-15T05:04:18;11.30;99.90
41324;DHT22;27073;51.128;4.220;2022-11-15T05:07:02;11.30;99.90
41324;DHT22;27073;51.128;4.220;2022-11-15T05:09:50;11.30;99.90
41324;DHT22;27073;51.128;4.220;2022-11-15T05:12:34;11.20;99.90
41324;DHT22;27073;51.128;4.220;2022-11-15T05:15:18;11.20;99.90
41324;DHT22;27073;51.128;4.220;2022-11-15T05:18:02;11.20;99.90
41324;DHT22;27073;51.128;4.220;2022-11-15T05:20:47;11.20;99.90
41324;DHT22;27073;51.128;4.220;2022-11-15T05:23:31;11.20;99.90
41324;DHT22;27073;51.128;4.220;2022-11-15T05:26:16;11.20;99.90
41324;DHT22;27073;51.128;4.220;2022-11-15T05:29:01;11.00;99.90
41324;DHT22;27073;51.128;4.220;2022-11-15T05:31:46;10.90;99.90
41324;DHT22;27073;51.128;4.220;2022-11-15T05:34:31;11.00;99.90
41324;DHT22;27073;51.128;4.220;2022-11-15T05:37:16;11.00;99.90
41324;DHT22;27073;51.128;4.220;2022-11-15T05:40:00;10.90;99.90
41324;DHT22;27073;51.128;4.220;2022-11-15T05:42:45;10.80;99.90
41324;DHT22;27073;51.128;4.220;2022-11-15T05:45:31;10.90;99.90
41324;DHT22;27073;51.128;4.220;2022-11-15T05:48:16;10.90;99.90
41324;DHT22;27073;51.128;4.220;2022-11-15T05:51:01;10.80;99.90
41324;DHT22;27073;51.128;4.220;2022-11-15T05:53:46;10.80;99.90
41324;DHT22;27073;51.128;4.220;2022-11-15T05:56:31;10.80;99.90
41324;DHT22;27073;51.128;4.220;2022-11-15T05:59:16;10.70;99.90
41324;DHT22;27073;51.128;4.220;2022-11-15T06:02:00;10.70;99.90
41324;DHT22;27073;51.128;4.220;2022-11-15T06:04:44;10.60;99.90
41324;DHT22;27073;51.128;4.220;2022-11-15T06:07:29;10.60;99.90
41324;DHT22;27073;51.128;4.220;2022-11-15T06:10:14;10.60;99.90
41324;DHT22;27073;51.128;4.220;2022-11-15T06:12:58;10.50;99.90
41324;DHT22;27073;51.128;4.220;2022-11-15T06:15:43;10.50;99.90
41324;DHT22;27073;51.128;4.220;2022-11-15T06:18:27;10.40;99.90
41324;DHT22;27073;51.128;4.220;2022-11-15T06:21:11;10.40;99.90
41324;DHT22;27073;51.128;4.220;2022-11-15T06:23:55;10.40;99.90
41324;DHT22;27073;51.128;4.220;2022-11-15T06:26:39;10.30;99.90
41324;DHT22;27073;51.128;4.220;2022-11-15T06:29:23;10.40;99.90
41324;DHT22;27073;51.128;4.220;2022-11-15T06:32:07;10.50;99.90
41324;DHT22;27073;51.128;4.220;2022-11-15T06:34:51;10.50;99.90
41324;DHT22;27073;51.128;4.220;2022-11-15T06:37:35;10.50;99.90
41324;DHT22;27073;51.128;4.220;2022-11-15T06:40:20;10.50;99.90
41324;DHT22;27073;51.128;4.220;2022-11-15T06:43:05;10.50;99.90
41324;DHT22;27073;51.128;4.220;2022-11-15T06:45:50;10.60;99.90
41324;DHT22;27073;51.128;4.220;2022-11-15T06:48:35;10.60;99.90
41324;DHT22;27073;51.128;4.220;2022-11-15T06:51:20;10.40;99.90
41324;DHT22;27073;51.128;4.220;2022-11-15T06:54:04;10.40;99.90
41324;DHT22;27073;51.128;4.220;2022-11-15T06:56:49;10.60;99.90
41324;DHT22;27073;51.128;4.220;2022-11-15T06:59:34;10.40;99.90
41324;DHT22;27073;51.128;4.220;2022-11-15T07:02:18;10.50;99.90
41324;DHT22;27073;51.128;4.220;2022-11-15T07:05:02;10.50;99.90
41324;DHT22;27073;51.128;4.220;2022-11-15T07:07:51;10.50;99.90
41324;DHT22;27073;51.128;4.220;2022-11-15T07:10:36;10.40;99.90
41324;DHT22;27073;51.128;4.220;2022-11-15T07:13:24;10.50;99.90
41324;DHT22;27073;51.128;4.220;2022-11-15T07:16:09;10.50;99.90
41324;DHT22;27073;51.128;4.220;2022-11-15T07:18:53;10.80;99.90
41324;DHT22;27073;51.128;4.220;2022-11-15T07:21:38;10.80;99.90
41324;DHT22;27073;51.128;4.220;2022-11-15T07:24:22;10.90;99.90
41324;DHT22;27073;51.128;4.220;2022-11-15T07:27:06;10.80;99.90
41324;DHT22;27073;51.128;4.220;2022-11-15T07:29:50;11.00;99.90
41324;DHT22;27073;51.128;4.220;2022-11-15T07:32:34;11.10;99.90
41324;DHT22;27073;51.128;4.220;2022-11-15T07:35:19;11.00;99.90
41324;DHT22;27073;51.128;4.220;2022-11-15T07:38:03;10.90;99.90
41324;DHT22;27073;51.128;4.220;2022-11-15T07:40:59;10.80;99.90
41324;DHT22;27073;51.128;4.220;2022-11-15T07:43:43;10.90;99.90
41324;DHT22;27073;51.128;4.220;2022-11-15T07:46:27;10.70;99.90
41324;DHT22;27073;51.128;4.220;2022-11-15T07:49:11;10.80;99.90
41324;DHT22;27073;51.128;4.220;2022-11-15T07:51:55;10.70;99.90
41324;DHT22;27073;51.128;4.220;2022-11-15T07:54:39;10.70;99.90
41324;DHT22;27073;51.128;4.220;2022-11-15T07:57:25;10.70;99.90
41324;DHT22;27073;51.128;4.220;2022-11-15T08:00:09;10.80;99.90
41324;DHT22;27073;51.128;4.220;2022-11-15T08:03:05;10.80;99.90
41324;DHT22;27073;51.128;4.220;2022-11-15T08:05:51;10.70;99.90
41324;DHT22;27073;51.128;4.220;2022-11-15T08:08:35;10.70;99.90
41324;DHT22;27073;51.128;4.220;2022-11-15T08:11:19;10.70;99.90
41324;DHT22;27073;51.128;4.220;2022-11-15T08:14:04;10.60;99.90
41324;DHT22;27073;51.128;4.220;2022-11-15T08:16:48;10.70;99.90
41324;DHT22;27073;51.128;4.220;2022-11-15T08:19:32;10.70;99.90
41324;DHT22;27073;51.128;4.220;2022-11-15T08:22:17;10.70;99.90
41324;DHT22;27073;51.128;4.220;2022-11-15T08:25:02;10.90;99.90
41324;DHT22;27073;51.128;4.220;2022-11-15T08:27:46;10.90;99.90
41324;DHT22;27073;51.128;4.220;2022-11-15T08:30:35;11.00;99.90
41324;DHT22;27073;51.128;4.220;2022-11-15T08:33:20;11.00;99.90
41324;DHT22;27073;51.128;4.220;2022-11-15T08:36:04;10.90;99.90
41324;DHT22;27073;51.128;4.220;2022-11-15T08:38:49;10.90;99.90
41324;DHT22;27073;51.128;4.220;2022-11-15T08:41:37;11.00;99.90
41324;DHT22;27073;51.128;4.220;2022-11-15T08:44:21;10.90;99.90
41324;DHT22;27073;51.128;4.220;2022-11-15T08:47:06;11.00;99.90
41324;DHT22;27073;51.128;4.220;2022-11-15T08:49:50;10.90;99.90
41324;DHT22;27073;51.128;4.220;2022-11-15T08:52:35;10.90;99.90
41324;DHT22;27073;51.128;4.220;2022-11-15T08:55:19;10.90;99.90
41324;DHT22;27073;51.128;4.220;2022-11-15T08:58:04;10.90;99.90
41324;DHT22;27073;51.128;4.220;2022-11-15T09:00:48;10.80;99.90
41324;DHT22;27073;51.128;4.220;2022-11-15T09:03:32;11.00;99.90
41324;DHT22;27073;51.128;4.220;2022-11-15T09:06:16;11.10;99.90
41324;DHT22;27073;51.128;4.220;2022-11-15T09:09:01;11.20;99.90
41324;DHT22;27073;51.128;4.220;2022-11-15T09:11:46;11.30;99.90
41324;DHT22;27073;51.128;4.220;2022-11-15T09:14:32;11.10;99.90
41324;DHT22;27073;51.128;4.220;2022-11-15T09:17:16;11.30;99.90
41324;DHT22;27073;51.128;4.220;2022-11-15T09:20:00;11.30;99.90
41324;DHT22;27073;51.128;4.220;2022-11-15T09:22:44;11.30;99.90
41324;DHT22;27073;51.128;4.220;2022-11-15T09:25:29;11.40;99.90
41324;DHT22;27073;51.128;4.220;2022-11-15T09:28:13;11.50;99.90
41324;DHT22;27073;51.128;4.220;2022-11-15T09:30:59;11.50;99.90
41324;DHT22;27073;51.128;4.220;2022-11-15T09:33:44;11.40;99.90
41324;DHT22;27073;51.128;4.220;2022-11-15T09:36:30;11.40;99.90
41324;DHT22;27073;51.128;4.220;2022-11-15T09:39:14;11.50;99.90
41324;DHT22;27073;51.128;4.220;2022-11-15T09:45:28;11.70;99.90
41324;DHT22;27073;51.128;4.220;2022-11-15T09:48:46;11.70;99.90
41324;DHT22;27073;51.128;4.220;2022-11-15T09:51:37;11.80;99.90
41324;DHT22;27073;51.128;4.220;2022-11-15T09:56:50;11.90;99.90
41324;DHT22;27073;51.128;4.220;2022-11-15T10:04:27;11.90;99.10
41324;DHT22;27073;51.128;4.220;2022-11-15T10:09:45;12.20;98.30
41324;DHT22;27073;51.128;4.220;2022-11-15T10:12:13;12.30;97.30
41324;DHT22;27073;51.128;4.220;2022-11-15T10:14:40;12.40;96.60
41324;DHT22;27073;51.128;4.220;2022-11-15T10:17:13;12.30;96.80
41324;DHT22;27073;51.128;4.220;2022-11-15T10:22:39;12.40;97.30
41324;DHT22;27073;51.128;4.220;2022-11-15T10:27:34;12.50;95.90
41324;DHT22;27073;51.128;4.220;2022-11-15T10:30:01;12.50;95.30
41324;DHT22;27073;51.128;4.220;2022-11-15T10:32:26;12.50;95.10
41324;DHT22;27073;51.128;4.220;2022-11-15T10:34:52;12.50;96.10
41324;DHT22;27073;51.128;4.220;2022-11-15T10:37:31;12.50;95.10
41324;DHT22;27073;51.128;4.220;2022-11-15T10:40:21;12.40;95.60
41324;DHT22;27073;51.128;4.220;2022-11-15T10:42:47;12.40;95.80
41324;DHT22;27073;51.128;4.220;2022-11-15T10:45:33;12.50;95.70
41324;DHT22;27073;51.128;4.220;2022-11-15T10:50:40;12.70;94.40
41324;DHT22;27073;51.128;4.220;2022-11-15T10:53:33;12.70;93.80
41324;DHT22;27073;51.128;4.220;2022-11-15T10:56:06;12.70;93.70
41324;DHT22;27073;51.128;4.220;2022-11-15T10:58:41;12.70;93.50
41324;DHT22;27073;51.128;4.220;2022-11-15T11:01:17;12.60;94.20
41324;DHT22;27073;51.128;4.220;2022-11-15T11:03:44;12.70;94.40
41324;DHT22;27073;51.128;4.220;2022-11-15T11:06:16;12.70;93.10
41324;DHT22;27073;51.128;4.220;2022-11-15T11:09:03;12.70;93.00
41324;DHT22;27073;51.128;4.220;2022-11-15T11:11:49;12.80;93.30
41324;DHT22;27073;51.128;4.220;2022-11-15T11:16:55;13.00;91.60
41324;DHT22;27073;51.128;4.220;2022-11-15T11:25:05;13.20;88.30
41324;DHT22;27073;51.128;4.220;2022-11-15T11:27:38;13.30;88.80
41324;DHT22;27073;51.128;4.220;2022-11-15T11:30:20;13.40;88.60
41324;DHT22;27073;51.128;4.220;2022-11-15T11:35:44;13.20;88.80
41324;DHT22;27073;51.128;4.220;2022-11-15T11:41:29;13.10;87.50
41324;DHT22;27073;51.128;4.220;2022-11-15T11:52:02;13.20;87.90
41324;DHT22;27073;51.128;4.220;2022-11-15T11:54:45;13.30;88.70
41324;DHT22;27073;51.128;4.220;2022-11-15T12:02:44;13.60;85.20
41324;DHT22;27073;51.128;4.220;2022-11-15T12:11:26;13.70;85.40
41324;DHT22;27073;51.128;4.220;2022-11-15T12:14:01;13.50;85.10
41324;DHT22;27073;51.128;4.220;2022-11-15T12:16:31;13.30;87.20
41324;DHT22;27073;51.128;4.220;2022-11-15T12:19:00;13.40;90.10
41324;DHT22;27073;51.128;4.220;2022-11-15T12:21:42;13.40;88.30
41324;DHT22;27073;51.128;4.220;2022-11-15T12:26:56;13.60;85.70
41324;DHT22;27073;51.128;4.220;2022-11-15T12:31:53;13.50;89.20
41324;DHT22;27073;51.128;4.220;2022-11-15T12:36:49;13.70;89.30
41324;DHT22;27073;51.128;4.220;2022-11-15T12:39:16;13.70;86.90
41324;DHT22;27073;51.128;4.220;2022-11-15T12:42:00;13.60;87.00
41324;DHT22;27073;51.128;4.220;2022-11-15T13:02:46;13.80;89.20
41324;DHT22;27073;51.128;4.220;2022-11-15T13:13:00;14.00;90.20
41324;DHT22;27073;51.128;4.220;2022-11-15T13:15:53;14.10;88.30
41324;DHT22;27073;51.128;4.220;2022-11-15T13:18:32;14.00;89.20
41324;DHT22;27073;51.128;4.220;2022-11-15T13:20:58;14.10;89.00
41324;DHT22;27073;51.128;4.220;2022-11-15T13:23:24;14.10;88.40
41324;DHT22;27073;51.128;4.220;2022-11-15T13:26:10;14.00;90.30
41324;DHT22;27073;51.128;4.220;2022-11-15T13:28:45;14.00;90.20
41324;DHT22;27073;51.128;4.220;2022-11-15T13:34:14;14.00;88.00
41324;DHT22;27073;51.128;4.220;2022-11-15T13:36:41;14.10;90.10
41324;DHT22;27073;51.128;4.220;2022-11-15T13:39:28;14.00;90.30
41324;DHT22;27073;51.128;4.220;2022-11-15T13:41:54;13.90;90.90
41324;DHT22;27073;51.128;4.220;2022-11-15T13:44:31;14.00;91.50
41324;DHT22;27073;51.128;4.220;2022-11-15T13:47:02;14.10;91.00
41324;DHT22;27073;51.128;4.220;2022-11-15T13:49:32;14.00;91.00
41324;DHT22;27073;51.128;4.220;2022-11-15T13:52:00;14.00;90.70
41324;DHT22;27073;51.128;4.220;2022-11-15T13:54:41;13.90;91.00
41324;DHT22;27073;51.128;4.220;2022-11-15T13:57:26;13.90;92.10
41324;DHT22;27073;51.128;4.220;2022-11-15T13:59:55;13.90;92.10
41324;DHT22;27073;51.128;4.220;2022-11-15T14:02:34;14.00;92.00
41324;DHT22;27073;51.128;4.220;2022-11-15T14:05:20;14.00;91.10
41324;DHT22;27073;51.128;4.220;2022-11-15T14:08:21;14.00;91.70
41324;DHT22;27073;51.128;4.220;2022-11-15T14:10:48;14.00;91.10
41324;DHT22;27073;51.128;4.220;2022-11-15T14:13:30;13.90;92.30
41324;DHT22;27073;51.128;4.220;2022-11-15T14:16:18;13.90;92.00
41324;DHT22;27073;51.128;4.220;2022-11-15T14:18:52;13.90;92.50
41324;DHT22;27073;51.128;4.220;2022-11-15T14:21:19;14.00;94.40
41324;DHT22;27073;51.128;4.220;2022-11-15T14:23:45;14.20;94.50
41324;DHT22;27073;51.128;4.220;2022-11-15T14:26:32;14.30;93.70
41324;DHT22;27073;51.128;4.220;2022-11-15T14:29:36;14.30;93.20
41324;DHT22;27073;51.128;4.220;2022-11-15T14:32:25;14.30;92.50
41324;DHT22;27073;51.128;4.220;2022-11-15T14:34:59;14.20;93.60
41324;DHT22;27073;51.128;4.220;2022-11-15T14:37:30;14.00;96.20
41324;DHT22;27073;51.128;4.220;2022-11-15T14:40:01;13.90;97.30
41324;DHT22;27073;51.128;4.220;2022-11-15T14:42:27;13.70;98.70
41324;DHT22;27073;51.128;4.220;2022-11-15T14:44:53;13.80;99.00
41324;DHT22;27073;51.128;4.220;2022-11-15T14:47:19;13.80;98.90
41324;DHT22;27073;51.128;4.220;2022-11-15T14:49:45;13.70;99.40
41324;DHT22;27073;51.128;4.220;2022-11-15T14:52:36;13.70;99.70
41324;DHT22;27073;51.128;4.220;2022-11-15T14:55:10;13.70;99.80
41324;DHT22;27073;51.128;4.220;2022-11-15T14:57:37;13.60;99.90
41324;DHT22;27073;51.128;4.220;2022-11-15T15:00:03;13.60;99.90
41324;DHT22;27073;51.128;4.220;2022-11-15T15:02:48;13.40;99.90
41324;DHT22;27073;51.128;4.220;2022-11-15T15:05:25;13.30;99.90
41324;DHT22;27073;51.128;4.220;2022-11-15T15:07:51;13.10;99.90
41324;DHT22;27073;51.128;4.220;2022-11-15T15:10:18;12.90;99.90
41324;DHT22;27073;51.128;4.220;2022-11-15T15:12:44;12.90;99.90
41324;DHT22;27073;51.128;4.220;2022-11-15T15:15:19;12.90;99.90
41324;DHT22;27073;51.128;4.220;2022-11-15T15:17:46;12.90;99.90
41324;DHT22;27073;51.128;4.220;2022-11-15T15:20:11;12.90;99.90
41324;DHT22;27073;51.128;4.220;2022-11-15T15:22:37;12.90;99.90
41324;DHT22;27073;51.128;4.220;2022-11-15T15:25:28;12.80;99.90
41324;DHT22;27073;51.128;4.220;2022-11-15T15:27:55;12.80;99.90
41324;DHT22;27073;51.128;4.220;2022-11-15T15:30:22;13.00;99.90
41324;DHT22;27073;51.128;4.220;2022-11-15T15:32:48;12.80;99.90
41324;DHT22;27073;51.128;4.220;2022-11-15T15:35:14;12.90;99.90
41324;DHT22;27073;51.128;4.220;2022-11-15T15:37:42;12.70;99.90
41324;DHT22;27073;51.128;4.220;2022-11-15T15:40:18;12.60;99.90
41324;DHT22;27073;51.128;4.220;2022-11-15T15:42:44;12.70;99.90
41324;DHT22;27073;51.128;4.220;2022-11-15T15:45:10;12.70;99.90
41324;DHT22;27073;51.128;4.220;2022-11-15T15:47:36;12.80;99.90
41324;DHT22;27073;51.128;4.220;2022-11-15T15:50:02;12.80;99.90
41324;DHT22;27073;51.128;4.220;2022-11-15T15:52:27;12.80;99.90
41324;DHT22;27073;51.128;4.220;2022-11-15T15:54:53;12.90;99.90
41324;DHT22;27073;51.128;4.220;2022-11-15T15:57:19;12.80;99.90
41324;DHT22;27073;51.128;4.220;2022-11-15T15:59:45;12.70;99.90
41324;DHT22;27073;51.128;4.220;2022-11-15T16:02:14;12.70;99.90
41324;DHT22;27073;51.128;4.220;2022-11-15T16:04:40;12.70;99.90
41324;DHT22;27073;51.128;4.220;2022-11-15T16:07:05;12.70;99.90
41324;DHT22;27073;51.128;4.220;2022-11-15T16:09:31;12.60;99.90
41324;DHT22;27073;51.128;4.220;2022-11-15T16:12:16;12.70;99.90
41324;DHT22;27073;51.128;4.220;2022-11-15T16:14:42;12.70;99.90
41324;DHT22;27073;51.128;4.220;2022-11-15T16:17:18;12.80;99.90
41324;DHT22;27073;51.128;4.220;2022-11-15T16:19:44;12.80;99.90
41324;DHT22;27073;51.128;4.220;2022-11-15T16:22:10;12.70;99.90
41324;DHT22;27073;51.128;4.220;2022-11-15T16:24:36;12.80;99.90
41324;DHT22;27073;51.128;4.220;2022-11-15T16:27:02;12.90;99.90
41324;DHT22;27073;51.128;4.220;2022-11-15T16:29:27;12.80;99.90
41324;DHT22;27073;51.128;4.220;2022-11-15T16:31:53;12.80;99.90
41324;DHT22;27073;51.128;4.220;2022-11-15T16:34:19;12.80;99.90
41324;DHT22;27073;51.128;4.220;2022-11-15T16:36:45;12.90;99.90
41324;DHT22;27073;51.128;4.220;2022-11-15T16:39:11;13.00;99.90
41324;DHT22;27073;51.128;4.220;2022-11-15T16:41:43;12.90;99.90
41324;DHT22;27073;51.128;4.220;2022-11-15T16:44:12;12.90;99.90
41324;DHT22;27073;51.128;4.220;2022-11-15T16:46:41;12.90;99.90
41324;DHT22;27073;51.128;4.220;2022-11-15T16:49:14;13.00;99.90
41324;DHT22;27073;51.128;4.220;2022-11-15T16:51:45;13.10;99.90
41324;DHT22;27073;51.128;4.220;2022-11-15T16:54:11;13.10;99.90
41324;DHT22;27073;51.128;4.220;2022-11-15T16:56:38;13.10;99.90
41324;DHT22;27073;51.128;4.220;2022-11-15T16:59:04;13.20;99.90
41324;DHT22;27073;51.128;4.220;2022-11-15T17:01:35;13.20;99.90
41324;DHT22;27073;51.128;4.220;2022-11-15T17:04:02;13.20;99.90
41324;DHT22;27073;51.128;4.220;2022-11-15T17:06:41;13.10;99.90
41324;DHT22;27073;51.128;4.220;2022-11-15T17:09:19;13.20;99.90
41324;DHT22;27073;51.128;4.220;2022-11-15T17:11:45;13.10;99.90
41324;DHT22;27073;51.128;4.220;2022-11-15T17:14:11;13.00;99.90
41324;DHT22;27073;51.128;4.220;2022-11-15T17:16:37;12.90;99.90
41324;DHT22;27073;51.128;4.220;2022-11-15T17:19:11;12.90;99.90
41324;DHT22;27073;51.128;4.220;2022-11-15T17:21:38;12.90;99.90
41324;DHT22;27073;51.128;4.220;2022-11-15T17:24:03;13.00;99.90
41324;DHT22;27073;51.128;4.220;2022-11-15T17:26:29;13.00;99.90
41324;DHT22;27073;51.128;4.220;2022-11-15T17:28:55;13.00;99.90
41324;DHT22;27073;51.128;4.220;2022-11-15T17:31:25;13.10;99.90
41324;DHT22;27073;51.128;4.220;2022-11-15T17:33:51;13.00;99.90
41324;DHT22;27073;51.128;4.220;2022-11-15T17:36:17;13.00;99.90
41324;DHT22;27073;51.128;4.220;2022-11-15T17:38:43;12.90;99.90
41324;DHT22;27073;51.128;4.220;2022-11-15T17:41:12;12.90;99.90
41324;DHT22;27073;51.128;4.220;2022-11-15T17:43:38;12.90;99.90
41324;DHT22;27073;51.128;4.220;2022-11-15T17:46:07;12.80;99.90
41324;DHT22;27073;51.128;4.220;2022-11-15T17:48:33;12.90;99.90
41324;DHT22;27073;51.128;4.220;2022-11-15T17:51:04;12.90;99.90
41324;DHT22;27073;51.128;4.220;2022-11-15T17:53:35;12.90;99.90
41324;DHT22;27073;51.128;4.220;2022-11-15T17:56:03;12.80;99.90
41324;DHT22;27073;51.128;4.220;2022-11-15T17:58:30;12.90;99.90
41324;DHT22;27073;51.128;4.220;2022-11-15T18:01:08;12.90;99.90
41324;DHT22;27073;51.128;4.220;2022-11-15T18:03:35;12.90;99.90
41324;DHT22;27073;51.128;4.220;2022-11-15T18:06:02;12.70;99.90
41324;DHT22;27073;51.128;4.220;2022-11-15T18:08:28;12.70;99.90
41324;DHT22;27073;51.128;4.220;2022-11-15T18:13:34;12.70;99.90
41324;DHT22;27073;51.128;4.220;2022-11-15T18:16:00;12.70;99.90
41324;DHT22;27073;51.128;4.220;2022-11-15T18:18:31;12.80;99.90
41324;DHT22;27073;51.128;4.220;2022-11-15T18:21:11;12.90;99.90
41324;DHT22;27073;51.128;4.220;2022-11-15T18:23:37;12.90;99.90
41324;DHT22;27073;51.128;4.220;2022-11-15T18:26:04;13.00;99.90
41324;DHT22;27073;51.128;4.220;2022-11-15T18:28:36;13.00;99.90
41324;DHT22;27073;51.128;4.220;2022-11-15T18:31:05;13.00;99.90
41324;DHT22;27073;51.128;4.220;2022-11-15T18:33:36;12.90;99.90
41324;DHT22;27073;51.128;4.220;2022-11-15T18:36:06;12.70;99.90
41324;DHT22;27073;51.128;4.220;2022-11-15T18:38:32;12.80;99.90
41324;DHT22;27073;51.128;4.220;2022-11-15T18:41:10;12.90;99.90
41324;DHT22;27073;51.128;4.220;2022-11-15T18:43:37;13.00;99.90
41324;DHT22;27073;51.128;4.220;2022-11-15T18:46:07;13.00;99.90
41324;DHT22;27073;51.128;4.220;2022-11-15T18:48:34;13.10;99.90
41324;DHT22;27073;51.128;4.220;2022-11-15T18:51:04;13.20;99.90
41324;DHT22;27073;51.128;4.220;2022-11-15T18:53:30;13.20;99.90